Time;durP1;ratioP1;P1;durP2;ratioP2;P2;SDS_P1;SDS_P2;PMS_P1;PMS_P2;Temp;Humidity;BMP_temperature;BMP_pressure;BME280_temperature;BME280_humidity;BME280_pressure;Samples;Min_cycle;Max_cycle;Signal;HPM_P1;HPM_P2
2023/07/19 00:02:22;;;;;;;;;;;;;;;23.37;27.57;97813.81;5001287;28;933;-78
2023/07/19 00:04:48;;;;;;;;;;;;;;;23.43;27.71;97813.22;4999482;28;1189;-78
2023/07/19 00:07:14;;;;;;;;;;;;;;;23.46;27.53;97809.44;4999207;28;899;-78
2023/07/19 00:09:39;;;;;;;;;;;;;;;23.40;27.46;97807.22;4983253;28;1249;-78
2023/07/19 00:12:06;;;;;;;;;;;;;;;23.52;27.81;97807.59;4975680;28;960;-77
2023/07/19 00:14:31;;;;;;;;;;;;;;;23.48;27.71;97801.28;4975224;28;1907;-78
2023/07/19 00:16:57;;;;;;;;;;;;;;;23.19;28.08;97796.63;4959595;28;1002;-78
2023/07/19 00:19:22;;;;;;;;;;;;;;;23.42;29.27;97795.41;4975549;28;916;-78
2023/07/19 00:21:48;;;;;;;;;;;;;;;23.86;29.83;97793.31;4975628;28;1003;-78
2023/07/19 00:24:14;;;;;;;;;;;;;;;23.57;31.36;97793.63;4959973;28;1267;-78
2023/07/19 00:26:39;;;;;;;;;;;;;;;24.09;31.71;97777.03;4947290;28;1342;-78
2023/07/19 00:29:05;;;;;;;;;;;;;;;23.53;31.91;97783.66;4963713;28;1038;-78
2023/07/19 00:31:31;;;;;;;;;;;;;;;23.20;31.68;97775.50;4943969;29;1211;-78
2023/07/19 00:33:56;;;;;;;;;;;;;;;22.44;32.63;97781.44;4959982;29;1973;-77
2023/07/19 00:36:22;;;;;;;;;;;;;;;23.06;31.83;97770.38;4943683;29;976;-78
2023/07/19 00:38:47;;;;;;;;;;;;;;;23.42;30.77;97760.53;4943648;29;858;-78
2023/07/19 00:41:13;;;;;;;;;;;;;;;23.35;30.52;97753.06;4944043;29;1134;-78
2023/07/19 00:43:39;;;;;;;;;;;;;;;23.52;29.88;97756.47;4972425;28;1067;-78
2023/07/19 00:46:04;;;;;;;;;;;;;;;23.27;30.22;97755.41;4999011;28;997;-78
2023/07/19 00:48:30;;;;;;;;;;;;;;;23.12;30.15;97755.13;4982008;28;952;-78
2023/07/19 00:50:55;;;;;;;;;;;;;;;23.25;29.77;97749.38;4982332;28;1317;-78
2023/07/19 00:53:21;;;;;;;;;;;;;;;23.40;29.48;97756.09;4998026;28;1894;-78
2023/07/19 00:55:48;;;;;;;;;;;;;;;23.59;28.78;97756.22;4982344;28;987;-78
2023/07/19 00:58:13;;;;;;;;;;;;;;;23.42;29.21;97746.34;4965942;28;1252;-78
2023/07/19 01:00:39;;;;;;;;;;;;;;;23.52;28.76;97745.13;4982636;28;862;-78
2023/07/19 01:03:04;;;;;;;;;;;;;;;23.29;29.03;97733.00;4997609;28;1099;-78
2023/07/19 01:05:30;;;;;;;;;;;;;;;23.15;28.84;97736.38;4986633;28;1080;-78
2023/07/19 01:07:56;;;;;;;;;;;;;;;23.18;28.86;97734.66;5002548;28;1040;-78
2023/07/19 01:10:23;;;;;;;;;;;;;;;23.51;28.04;97737.88;4986265;28;994;-78
2023/07/19 01:13:21;;;;;;;;;;;;;;;23.29;28.42;97721.66;5002769;28;871;-78
2023/07/19 01:15:46;;;;;;;;;;;;;;;23.36;28.11;97721.41;4940196;29;985;-78
2023/07/19 01:18:13;;;;;;;;;;;;;;;23.56;27.90;97717.38;4924494;29;1064;-78
2023/07/19 01:20:39;;;;;;;;;;;;;;;23.25;28.37;97714.53;4908667;29;911;-78
2023/07/19 01:23:04;;;;;;;;;;;;;;;23.44;27.86;97716.22;4940127;29;969;-78
2023/07/19 01:25:30;;;;;;;;;;;;;;;23.28;27.96;97725.75;4886240;29;1183;-78
2023/07/19 01:27:56;;;;;;;;;;;;;;;23.44;27.84;97743.81;4886568;29;1007;-79
2023/07/19 01:30:21;;;;;;;;;;;;;;;23.52;27.75;97745.13;4886394;29;1118;-78
2023/07/19 01:32:48;;;;;;;;;;;;;;;23.28;28.36;97737.09;4871065;29;951;-78
2023/07/19 01:35:14;;;;;;;;;;;;;;;23.19;28.34;97742.72;4879312;29;1911;-77
2023/07/19 01:37:40;;;;;;;;;;;;;;;23.47;27.84;97745.75;4880127;29;1778;-78
2023/07/19 01:40:06;;;;;;;;;;;;;;;23.13;28.21;97744.56;4864652;29;1289;-77
2023/07/19 01:42:31;;;;;;;;;;;;;;;23.49;27.66;97729.81;4864825;29;928;-79
2023/07/19 01:45:00;;;;;;;;;;;;;;;23.34;27.88;97731.63;4849157;29;1103;-78
2023/07/19 01:47:26;;;;;;;;;;;;;;;23.19;28.24;97739.88;4880287;29;1390;-78
2023/07/19 01:49:51;;;;;;;;;;;;;;;23.17;28.23;97724.56;4864329;29;977;-78
2023/07/19 01:52:17;;;;;;;;;;;;;;;23.25;27.92;97723.81;4914384;29;1055;-78
2023/07/19 01:54:43;;;;;;;;;;;;;;;23.09;28.05;97735.38;4889388;29;1918;-78
2023/07/19 01:57:09;;;;;;;;;;;;;;;23.27;28.06;97735.53;4949644;28;948;-78
2023/07/19 01:59:34;;;;;;;;;;;;;;;23.17;27.89;97742.41;4961971;28;1022;-79
2023/07/19 02:02:00;;;;;;;;;;;;;;;22.82;28.46;97750.91;4945936;28;1275;-78
2023/07/19 02:04:26;;;;;;;;;;;;;;;22.95;28.58;97744.41;4961427;28;1161;-78
2023/07/19 02:06:52;;;;;;;;;;;;;;;23.00;28.55;97744.63;4945926;28;1266;-78
2023/07/19 02:09:18;;;;;;;;;;;;;;;23.31;27.96;97741.88;4939178;29;1245;-78
2023/07/19 02:11:44;;;;;;;;;;;;;;;23.20;28.35;97746.34;4912290;28;1240;-78
2023/07/19 02:14:09;;;;;;;;;;;;;;;23.62;29.51;97750.41;4945213;28;1977;-78
2023/07/19 02:16:37;;;;;;;;;;;;;;;24.01;30.34;97747.31;4920238;29;988;-78
2023/07/19 02:19:03;;;;;;;;;;;;;;;23.97;30.03;97746.66;4919849;29;988;-78
2023/07/19 02:21:29;;;;;;;;;;;;;;;23.53;30.16;97755.25;4920450;29;1076;-78
2023/07/19 02:23:54;;;;;;;;;;;;;;;23.33;29.75;97749.91;4903685;29;1271;-78
2023/07/19 02:26:21;;;;;;;;;;;;;;;23.26;29.44;97739.63;4904255;29;1265;-78
2023/07/19 02:28:46;;;;;;;;;;;;;;;23.07;29.24;97741.53;4903616;29;1168;-78
2023/07/19 02:31:12;;;;;;;;;;;;;;;23.21;28.61;97743.06;4904656;29;1205;-78
2023/07/19 02:33:37;;;;;;;;;;;;;;;23.38;27.96;97747.25;4919392;29;1982;-79
2023/07/19 02:36:03;;;;;;;;;;;;;;;23.28;28.16;97748.47;4904088;29;1193;-78
2023/07/19 02:38:29;;;;;;;;;;;;;;;23.26;27.71;97739.63;4903144;29;981;-78
2023/07/19 02:40:59;;;;;;;;;;;;;;;23.13;27.78;97736.03;4929836;29;1023;-78
2023/07/19 02:43:24;;;;;;;;;;;;;;;22.90;28.20;97742.16;4922818;29;987;-78
2023/07/19 02:45:51;;;;;;;;;;;;;;;22.56;29.71;97749.41;4938823;29;1312;-79
2023/07/19 02:48:17;;;;;;;;;;;;;;;22.87;30.23;97747.47;4956147;28;1134;-78
2023/07/19 02:50:45;;;;;;;;;;;;;;;22.96;29.76;97743.97;4976788;28;983;-78
2023/07/19 02:53:11;;;;;;;;;;;;;;;23.02;29.80;97741.31;4922204;29;1914;-78
2023/07/19 02:55:37;;;;;;;;;;;;;;;23.14;30.80;97744.09;4922715;29;1013;-79
2023/07/19 02:58:02;;;;;;;;;;;;;;;23.61;32.41;97757.31;4922421;29;1243;-78
2023/07/19 03:00:28;;;;;;;;;;;;;;;23.66;31.88;97744.59;4937948;29;977;-78
2023/07/19 03:02:53;;;;;;;;;;;;;;;23.77;30.78;97750.66;4937988;29;1123;-78
2023/07/19 03:05:22;;;;;;;;;;;;;;;23.42;30.72;97749.97;4922369;29;918;-78
2023/07/19 03:07:48;;;;;;;;;;;;;;;23.49;29.65;97751.75;4922244;29;901;-78
2023/07/19 03:10:13;;;;;;;;;;;;;;;23.59;28.66;97750.53;4938254;29;1026;-78
2023/07/19 03:12:39;;;;;;;;;;;;;;;23.15;28.80;97750.56;4938299;29;928;-78
2023/07/19 03:15:05;;;;;;;;;;;;;;;22.88;29.05;97749.09;4922412;29;1988;-78
2023/07/19 03:17:31;;;;;;;;;;;;;;;23.21;29.94;97764.94;5277105;22;3772;-82
2023/07/19 03:19:56;;;;;;;;;;;;;;;23.83;30.80;97771.53;4991786;28;896;-83
2023/07/19 03:22:22;;;;;;;;;;;;;;;23.88;32.38;97773.78;5100955;23;3538;-76
2023/07/19 03:24:48;;;;;;;;;;;;;;;24.26;33.19;97775.50;4977970;28;904;-76
2023/07/19 03:27:13;;;;;;;;;;;;;;;23.73;33.04;97777.66;4978331;28;1136;-79
2023/07/19 03:29:39;;;;;;;;;;;;;;;23.13;32.55;97770.09;4977739;28;903;-78
2023/07/19 03:32:06;;;;;;;;;;;;;;;23.02;32.09;97766.88;4978021;28;1211;-78
2023/07/19 03:34:32;;;;;;;;;;;;;;;23.23;31.73;97759.63;4979467;28;1922;-78
2023/07/19 03:36:58;;;;;;;;;;;;;;;23.32;31.06;97771.84;4957812;29;987;-78
2023/07/19 03:39:23;;;;;;;;;;;;;;;23.39;30.25;97774.41;4941178;29;1098;-78
2023/07/19 03:41:50;;;;;;;;;;;;;;;23.17;30.61;97770.78;4957544;28;1057;-78
2023/07/19 03:44:17;;;;;;;;;;;;;;;23.51;29.63;97771.94;4957187;28;1026;-77
2023/07/19 03:46:42;;;;;;;;;;;;;;;23.47;29.48;97765.63;4941678;28;1073;-78
2023/07/19 03:49:08;;;;;;;;;;;;;;;23.47;28.96;97762.78;4900023;29;1099;-78
2023/07/19 03:51:34;;;;;;;;;;;;;;;23.24;29.00;97762.00;4900779;29;966;-78
2023/07/19 03:54:03;;;;;;;;;;;;;;;23.21;28.86;97762.94;4884464;29;1927;-78
2023/07/19 03:56:28;;;;;;;;;;;;;;;23.24;28.80;97759.16;4900364;29;1190;-78
2023/07/19 03:58:54;;;;;;;;;;;;;;;23.31;28.64;97763.75;4899815;29;1339;-78
2023/07/19 04:01:19;;;;;;;;;;;;;;;23.37;28.34;97764.78;4884724;29;1153;-78
2023/07/19 04:03:45;;;;;;;;;;;;;;;23.60;27.78;97764.28;4900213;29;1069;-78
2023/07/19 04:06:11;;;;;;;;;;;;;;;23.24;28.02;97764.81;4881302;29;961;-78
2023/07/19 04:08:36;;;;;;;;;;;;;;;23.59;27.46;97762.69;4911542;29;1188;-77
2023/07/19 04:11:02;;;;;;;;;;;;;;;23.40;27.59;97758.16;4938445;29;940;-78
2023/07/19 04:13:28;;;;;;;;;;;;;;;23.43;27.41;97760.06;4937260;29;1978;-78
2023/07/19 04:15:54;;;;;;;;;;;;;;;23.13;27.59;97747.41;4914690;29;1542;-78
2023/07/19 04:18:21;;;;;;;;;;;;;;;23.30;27.47;97754.44;4903111;29;1144;-78
2023/07/19 04:20:52;;;;;;;;;;;;;;;23.40;27.52;97756.09;4948260;29;1083;-77
2023/07/19 04:23:17;;;;;;;;;;;;;;;23.32;27.18;97757.63;4884095;29;1107;-78
2023/07/19 04:25:44;;;;;;;;;;;;;;;23.27;27.39;97748.94;4900155;29;1196;-78
2023/07/19 04:28:11;;;;;;;;;;;;;;;23.14;27.61;97755.44;4899643;29;1248;-78
2023/07/19 04:30:37;;;;;;;;;;;;;;;23.09;27.78;97755.25;4900101;29;1244;-78
2023/07/19 04:33:04;;;;;;;;;;;;;;;23.33;27.26;97752.75;4900026;29;1109;-78
2023/07/19 04:35:30;;;;;;;;;;;;;;;23.47;26.88;97763.56;4899865;29;1981;-78
2023/07/19 04:37:56;;;;;;;;;;;;;;;23.51;27.04;97763.41;4915157;29;1153;-78
2023/07/19 04:40:22;;;;;;;;;;;;;;;23.20;27.08;97764.16;4903093;29;874;-78
2023/07/19 04:42:48;;;;;;;;;;;;;;;23.05;27.68;97763.09;4925416;29;1827;-78
2023/07/19 04:45:14;;;;;;;;;;;;;;;23.23;27.14;97763.25;4937580;29;1178;-79
2023/07/19 04:47:41;;;;;;;;;;;;;;;23.32;27.00;97771.03;4937523;29;1333;-77
2023/07/19 04:50:08;;;;;;;;;;;;;;;23.35;27.19;97767.25;4937008;29;1279;-79
2023/07/19 04:52:35;;;;;;;;;;;;;;;23.48;26.95;97767.22;4921884;29;1316;-78
2023/07/19 04:55:01;;;;;;;;;;;;;;;23.17;27.47;97776.44;4952564;28;1981;-78
2023/07/19 04:57:27;;;;;;;;;;;;;;;23.31;27.31;97773.09;4960297;28;1134;-79
2023/07/19 04:59:53;;;;;;;;;;;;;;;23.08;27.75;97767.84;4975960;28;927;-78
2023/07/19 05:02:19;;;;;;;;;;;;;;;23.06;27.87;97776.06;4959619;28;942;-77
2023/07/19 05:04:44;;;;;;;;;;;;;;;23.32;27.26;97774.69;4959776;28;1218;-78
2023/07/19 05:07:10;;;;;;;;;;;;;;;23.24;27.65;97764.81;4959887;28;1119;-78
2023/07/19 05:09:35;;;;;;;;;;;;;;;23.36;27.11;97766.81;4959404;28;1260;-78
2023/07/19 05:12:01;;;;;;;;;;;;;;;23.23;27.56;97768.13;4937606;29;1141;-79
2023/07/19 05:14:28;;;;;;;;;;;;;;;23.01;27.80;97768.91;4943617;29;1906;-78
2023/07/19 05:16:53;;;;;;;;;;;;;;;23.32;27.50;97771.84;4944129;28;1252;-78
2023/07/19 05:19:19;;;;;;;;;;;;;;;23.45;27.11;97768.13;4943912;28;1221;-78
2023/07/19 05:21:45;;;;;;;;;;;;;;;23.18;27.56;97772.34;4959152;28;1198;-78
2023/07/19 05:24:12;;;;;;;;;;;;;;;23.34;27.51;97769.31;4931078;28;1193;-77
2023/07/19 05:26:39;;;;;;;;;;;;;;;23.31;27.47;97769.44;4979337;28;1189;-78
2023/07/19 05:29:05;;;;;;;;;;;;;;;23.23;27.58;97774.59;4947081;28;1067;-78
2023/07/19 05:31:30;;;;;;;;;;;;;;;23.26;27.48;97776.53;4962916;28;1279;-78
2023/07/19 05:33:56;;;;;;;;;;;;;;;23.22;27.49;97770.19;4930970;28;1910;-78
2023/07/19 05:36:22;;;;;;;;;;;;;;;23.33;27.49;97767.75;4979033;28;914;-78
2023/07/19 05:38:47;;;;;;;;;;;;;;;23.19;27.75;97771.09;4962947;28;1145;-78
2023/07/19 05:41:13;;;;;;;;;;;;;;;23.13;27.75;97770.09;4946363;28;1048;-78
2023/07/19 05:43:38;;;;;;;;;;;;;;;23.53;26.86;97780.81;4978592;28;1160;-78
2023/07/19 05:46:07;;;;;;;;;;;;;;;23.46;27.31;97772.53;4962769;28;992;-78
2023/07/19 05:48:33;;;;;;;;;;;;;;;23.36;27.31;97769.66;4935296;29;1555;-78
2023/07/19 05:51:02;;;;;;;;;;;;;;;23.25;27.60;97766.41;4912347;29;1307;-78
2023/07/19 05:53:28;;;;;;;;;;;;;;;23.27;27.55;97772.44;4923487;29;1973;-78
2023/07/19 05:55:53;;;;;;;;;;;;;;;23.09;27.50;97769.44;4908461;29;979;-78
2023/07/19 05:58:19;;;;;;;;;;;;;;;23.50;27.06;97776.84;4923826;29;823;-78
2023/07/19 06:00:44;;;;;;;;;;;;;;;23.45;26.99;97765.28;4908703;29;1255;-78
2023/07/19 06:03:10;;;;;;;;;;;;;;;23.09;27.47;97769.44;4908274;29;1020;-78
2023/07/19 06:05:36;;;;;;;;;;;;;;;23.42;27.09;97769.84;4892848;29;1145;-78
2023/07/19 06:08:01;;;;;;;;;;;;;;;23.33;27.19;97766.94;4900762;29;1837;-79
2023/07/19 06:10:27;;;;;;;;;;;;;;;23.36;27.30;97768.84;4902119;29;1043;-78
2023/07/19 06:12:53;;;;;;;;;;;;;;;23.58;26.90;97766.78;4889347;29;1133;-78
2023/07/19 06:15:19;;;;;;;;;;;;;;;23.07;27.71;97766.28;4888723;29;1915;-78
2023/07/19 06:17:44;;;;;;;;;;;;;;;23.36;27.22;97760.31;4904976;29;1324;-77
2023/07/19 06:20:13;;;;;;;;;;;;;;;23.15;27.33;97747.72;4936034;28;1144;-78
2023/07/19 06:22:39;;;;;;;;;;;;;;;23.12;27.73;97757.19;4945156;28;1223;-78
2023/07/19 06:25:05;;;;;;;;;;;;;;;23.30;27.46;97750.81;4962136;28;970;-78
2023/07/19 06:27:30;;;;;;;;;;;;;;;23.23;27.53;97743.38;4978943;28;1034;-78
2023/07/19 06:29:56;;;;;;;;;;;;;;;23.45;27.15;97760.38;4978698;28;996;-77
2023/07/19 06:32:21;;;;;;;;;;;;;;;23.66;26.85;97750.28;4979082;28;853;-77
2023/07/19 06:34:47;;;;;;;;;;;;;;;23.58;26.92;97760.31;4979419;28;1914;-78
2023/07/19 06:37:13;;;;;;;;;;;;;;;23.39;27.04;97759.41;4978848;28;910;-77
2023/07/19 06:39:39;;;;;;;;;;;;;;;23.07;27.48;97757.75;4979556;28;915;-77
2023/07/19 06:42:05;;;;;;;;;;;;;;;23.49;26.93;97758.22;4979952;28;929;-78
2023/07/19 06:44:30;;;;;;;;;;;;;;;23.00;27.67;97756.00;4979493;28;943;-77
2023/07/19 06:46:57;;;;;;;;;;;;;;;23.56;26.95;97751.47;4979614;28;933;-78
2023/07/19 06:49:23;;;;;;;;;;;;;;;23.31;27.56;97746.72;4978484;28;885;-78
2023/07/19 06:51:48;;;;;;;;;;;;;;;23.17;27.62;97748.06;4978727;28;881;-78
2023/07/19 06:54:14;;;;;;;;;;;;;;;23.30;27.69;97748.78;4979596;28;2014;-78
2023/07/19 06:56:39;;;;;;;;;;;;;;;23.37;27.47;97754.19;4979293;28;1606;-79
2023/07/19 06:59:05;;;;;;;;;;;;;;;23.25;27.28;97743.69;4979332;28;957;-79
2023/07/19 07:01:31;;;;;;;;;;;;;;;23.42;27.36;97747.13;4962356;28;1131;-79
2023/07/19 07:03:56;;;;;;;;;;;;;;;23.37;27.43;97740.00;4978441;28;807;-78
2023/07/19 07:06:22;;;;;;;;;;;;;;;23.47;27.44;97742.91;4977020;28;1000;-78
2023/07/19 07:08:47;;;;;;;;;;;;;;;23.69;26.97;97738.00;4977062;28;822;-78
2023/07/19 07:11:13;;;;;;;;;;;;;;;23.42;27.43;97740.66;4961162;28;861;-78
2023/07/19 07:13:39;;;;;;;;;;;;;;;23.49;27.41;97740.38;4960846;28;1918;-79
2023/07/19 07:16:04;;;;;;;;;;;;;;;23.38;27.48;97738.75;4961259;28;1149;-79
2023/07/19 07:18:30;;;;;;;;;;;;;;;23.26;27.57;97736.78;4960857;28;954;-79
2023/07/19 07:20:56;;;;;;;;;;;;;;;23.56;27.49;97740.09;4960718;28;1087;-79
2023/07/19 07:23:21;;;;;;;;;;;;;;;23.47;27.64;97743.69;4960573;28;1210;-79
2023/07/19 07:25:55;;;;;;;;;;;;;;;23.62;27.26;97729.72;4919335;29;1640;-79
2023/07/19 07:28:22;;;;;;;;;;;;;;;23.36;27.82;97738.44;4903211;29;1365;-79
2023/07/19 07:30:47;;;;;;;;;;;;;;;23.23;27.67;97745.44;4881543;29;1931;-79
2023/07/19 07:33:13;;;;;;;;;;;;;;;23.40;27.72;97744.75;4865787;29;1492;-79
2023/07/19 07:35:38;;;;;;;;;;;;;;;23.55;27.76;97738.53;4881533;29;1978;-79
2023/07/19 07:38:04;;;;;;;;;;;;;;;23.54;27.71;97749.09;4884713;29;1706;-79
2023/07/19 07:40:29;;;;;;;;;;;;;;;23.53;27.58;97753.19;4900413;29;921;-79
2023/07/19 07:42:55;;;;;;;;;;;;;;;23.28;28.03;97742.78;4900109;29;1065;-79
2023/07/19 07:45:21;;;;;;;;;;;;;;;23.21;28.28;97748.72;4900064;29;921;-79
2023/07/19 07:47:46;;;;;;;;;;;;;;;23.64;27.79;97747.13;4900172;29;955;-79
2023/07/19 07:50:12;;;;;;;;;;;;;;;23.35;28.09;97736.81;4900189;29;1121;-79
2023/07/19 07:52:38;;;;;;;;;;;;;;;23.15;28.44;97747.72;4900301;29;1023;-79
2023/07/19 07:55:05;;;;;;;;;;;;;;;23.25;28.40;97749.38;4899899;29;1973;-78
2023/07/19 07:57:33;;;;;;;;;;;;;;;23.33;28.35;97745.03;4918324;29;938;-79
2023/07/19 08:00:00;;;;;;;;;;;;;;;23.40;28.16;97744.75;4941311;29;1157;-79
2023/07/19 08:02:25;;;;;;;;;;;;;;;23.32;28.42;97751.97;4957149;29;866;-79
2023/07/19 08:04:52;;;;;;;;;;;;;;;23.48;28.26;97750.97;4934425;29;1469;-78
2023/07/19 08:07:18;;;;;;;;;;;;;;;23.43;28.24;97743.03;4908715;29;1208;-79
2023/07/19 08:09:43;;;;;;;;;;;;;;;23.23;28.73;97746.22;4940679;29;1125;-79
2023/07/19 08:12:09;;;;;;;;;;;;;;;23.58;28.01;97743.28;4940913;29;1727;-78
2023/07/19 08:14:37;;;;;;;;;;;;;;;23.73;27.78;97755.72;4918409;29;1915;-79
2023/07/19 08:17:03;;;;;;;;;;;;;;;23.53;28.23;97739.00;4918917;29;1007;-79
2023/07/19 08:19:29;;;;;;;;;;;;;;;23.54;28.18;97742.63;4918556;29;1189;-78
2023/07/19 08:22:01;;;;;;;;;;;;;;;23.62;28.02;97749.59;4903022;29;1283;-79
2023/07/19 08:24:27;;;;;;;;;;;;;;;23.53;27.91;97741.03;4918458;29;905;-79
2023/07/19 08:26:53;;;;;;;;;;;;;;;23.37;28.06;97745.69;4918842;29;1319;-78
2023/07/19 08:29:18;;;;;;;;;;;;;;;23.31;28.03;97741.03;4918538;29;1307;-78
2023/07/19 08:31:44;;;;;;;;;;;;;;;23.38;28.15;97735.91;4903053;29;874;-79
2023/07/19 08:34:10;;;;;;;;;;;;;;;23.22;28.73;97738.97;4918490;29;1903;-78
2023/07/19 08:36:35;;;;;;;;;;;;;;;23.44;28.35;97738.16;4933928;29;956;-79
2023/07/19 08:39:01;;;;;;;;;;;;;;;23.54;28.10;97731.25;4937367;29;1261;-79
2023/07/19 08:41:27;;;;;;;;;;;;;;;23.65;27.97;97732.47;4937359;29;927;-79
2023/07/19 08:43:53;;;;;;;;;;;;;;;23.59;28.27;97733.50;4933945;29;1128;-79
2023/07/19 08:46:19;;;;;;;;;;;;;;;23.59;28.20;97731.44;4905023;29;905;-80
2023/07/19 08:48:45;;;;;;;;;;;;;;;23.31;28.49;97729.69;4890666;29;1231;-79
2023/07/19 08:51:10;;;;;;;;;;;;;;;23.36;28.52;97732.75;4912830;29;916;-79
2023/07/19 08:53:36;;;;;;;;;;;;;;;23.47;27.92;97725.88;4940691;29;1906;-79
2023/07/19 08:56:01;;;;;;;;;;;;;;;23.48;28.06;97733.13;4956680;29;1825;-78
2023/07/19 08:58:27;;;;;;;;;;;;;;;23.54;28.11;97725.59;4937299;29;1551;-78
2023/07/19 09:00:53;;;;;;;;;;;;;;;23.71;27.59;97729.81;4939360;29;1493;-78
2023/07/19 09:03:18;;;;;;;;;;;;;;;23.53;28.11;97726.84;4903113;29;908;-77
2023/07/19 09:05:44;;;;;;;;;;;;;;;23.50;27.86;97730.59;4902991;29;1509;-77
2023/07/19 09:08:10;;;;;;;;;;;;;;;23.56;27.95;97738.06;4887094;29;1502;-77
2023/07/19 09:10:36;;;;;;;;;;;;;;;23.59;27.68;97727.81;4902488;29;1512;-77
2023/07/19 09:13:07;;;;;;;;;;;;;;;23.61;27.94;97731.75;4902181;29;1493;-78
2023/07/19 09:15:33;;;;;;;;;;;;;;;23.67;27.69;97723.47;4917149;29;1903;-77
2023/07/19 09:18:00;;;;;;;;;;;;;;;23.33;28.29;97725.16;4905988;29;1518;-77
2023/07/19 09:20:26;;;;;;;;;;;;;;;23.49;28.19;97729.03;4905769;29;1256;-77
2023/07/19 09:22:52;;;;;;;;;;;;;;;23.64;27.70;97724.41;4905462;29;1476;-78
2023/07/19 09:25:17;;;;;;;;;;;;;;;23.56;27.83;97723.06;4920295;29;1521;-77
2023/07/19 09:27:44;;;;;;;;;;;;;;;23.69;27.53;97712.44;4872817;29;1906;-77
2023/07/19 09:30:13;;;;;;;;;;;;;;;23.40;28.15;97724.88;4873963;29;1542;-78
2023/07/19 09:32:39;;;;;;;;;;;;;;;23.58;28.01;97720.56;4870647;29;1612;-77
2023/07/19 09:35:05;;;;;;;;;;;;;;;23.52;28.12;97722.41;4881150;29;1899;-78
2023/07/19 09:37:30;;;;;;;;;;;;;;;23.23;28.44;97720.66;4879787;29;1844;-77
2023/07/19 09:39:56;;;;;;;;;;;;;;;23.22;28.42;97716.25;4880251;29;1671;-77
2023/07/19 09:42:24;;;;;;;;;;;;;;;23.26;28.37;97711.25;4886723;29;1046;-78
2023/07/19 09:44:49;;;;;;;;;;;;;;;23.64;27.64;97701.69;4886434;29;1345;-77
2023/07/19 09:47:15;;;;;;;;;;;;;;;23.50;27.86;97707.88;4889484;29;1545;-78
2023/07/19 09:49:42;;;;;;;;;;;;;;;23.55;27.62;97704.44;4872470;29;1565;-77
2023/07/19 09:52:07;;;;;;;;;;;;;;;23.53;27.64;97698.44;4881146;29;1593;-78
2023/07/19 09:54:33;;;;;;;;;;;;;;;23.79;27.41;97697.03;4918027;29;1992;-78
2023/07/19 09:56:59;;;;;;;;;;;;;;;23.59;27.49;97700.22;4918268;29;1511;-77
2023/07/19 09:59:25;;;;;;;;;;;;;;;23.56;27.57;97694.66;4928079;29;1519;-77
2023/07/19 10:01:50;;;;;;;;;;;;;;;23.27;28.18;97684.44;4874951;29;1581;-78
2023/07/19 10:04:23;;;;;;;;;;;;;;;23.28;28.29;97691.69;4882497;29;971;-77
2023/07/19 10:06:48;;;;;;;;;;;;;;;23.42;28.02;97678.22;4871930;29;2010;-79
2023/07/19 10:09:34;;;;;;;;;;;;;;;23.57;27.57;97682.84;4853249;29;1693;-77
2023/07/19 10:12:01;;;;;;;;;;;;;;;23.62;27.65;97692.78;4827238;29;1808;-78
2023/07/19 10:14:27;;;;;;;;;;;;;;;23.39;27.77;97677.84;4810086;29;1978;-77
2023/07/19 10:16:59;;;;;;;;;;;;;;;23.43;27.89;97679.78;4818826;29;2134;-78
2023/07/19 10:19:24;;;;;;;;;;;;;;;23.36;27.74;97675.97;4809201;29;1608;-77
2023/07/19 10:22:06;;;;;;;;;;;;;;;23.49;27.95;97669.41;4857140;29;1409;-77
2023/07/19 10:24:32;;;;;;;;;;;;;;;23.57;27.61;97673.53;4827023;29;1575;-78
2023/07/19 10:27:04;;;;;;;;;;;;;;;23.59;27.46;97676.69;4847099;29;1535;-78
2023/07/19 10:29:40;;;;;;;;;;;;;;;23.59;27.75;97680.34;4837726;29;1376;-77
2023/07/19 10:32:06;;;;;;;;;;;;;;;23.70;27.33;97671.41;4896120;29;1594;-77
2023/07/19 10:34:32;;;;;;;;;;;;;;;23.59;27.74;97665.34;4904303;29;1907;-77
2023/07/19 10:37:04;;;;;;;;;;;;;;;23.66;27.31;97659.38;4919773;29;1600;-78
2023/07/19 10:39:30;;;;;;;;;;;;;;;23.51;27.65;97661.19;4919643;29;1638;-77
2023/07/19 10:41:55;;;;;;;;;;;;;;;23.75;27.47;97653.75;4904295;29;1628;-77
2023/07/19 10:44:21;;;;;;;;;;;;;;;23.55;27.69;97656.94;4888261;29;1496;-78
2023/07/19 10:46:47;;;;;;;;;;;;;;;23.53;27.83;97661.53;4926879;29;1385;-78
2023/07/19 10:49:13;;;;;;;;;;;;;;;23.64;27.57;97650.56;4929659;29;1508;-77
2023/07/19 10:51:38;;;;;;;;;;;;;;;23.61;27.66;97648.59;4903991;29;1313;-77
2023/07/19 10:54:04;;;;;;;;;;;;;;;23.74;27.34;97649.34;4919431;29;1989;-77
2023/07/19 10:56:30;;;;;;;;;;;;;;;23.60;27.81;97655.56;4903733;29;1379;-78
2023/07/19 10:58:58;;;;;;;;;;;;;;;23.66;27.54;97648.03;4903832;29;1614;-78
2023/07/19 11:01:26;;;;;;;;;;;;;;;23.66;27.51;97648.03;4893597;29;1115;-77
2023/07/19 11:03:51;;;;;;;;;;;;;;;23.71;27.63;97643.78;4941344;29;1776;-77
2023/07/19 11:06:17;;;;;;;;;;;;;;;23.49;27.83;97643.84;4933459;29;1641;-77
2023/07/19 11:08:44;;;;;;;;;;;;;;;23.75;27.48;97653.75;4940925;29;1514;-78
2023/07/19 11:11:11;;;;;;;;;;;;;;;23.68;27.71;97651.22;4938517;29;1527;-78
2023/07/19 11:13:37;;;;;;;;;;;;;;;23.69;27.69;97647.09;4949428;29;1910;-77
2023/07/19 11:16:03;;;;;;;;;;;;;;;23.69;27.78;97635.75;4957125;29;1503;-77
2023/07/19 11:18:28;;;;;;;;;;;;;;;23.51;27.79;97641.31;4938175;29;1766;-77
2023/07/19 11:20:57;;;;;;;;;;;;;;;23.64;27.84;97636.34;4933620;29;1502;-77
2023/07/19 11:23:26;;;;;;;;;;;;;;;23.67;27.70;97641.09;4964230;28;1934;-77
2023/07/19 11:25:51;;;;;;;;;;;;;;;23.32;28.17;97632.72;4933970;29;1560;-78
2023/07/19 11:28:36;;;;;;;;;;;;;;;23.51;27.86;97630.75;4956868;28;1540;-77
2023/07/19 11:31:03;;;;;;;;;;;;;;;23.33;28.35;97628.63;4961218;28;1765;-78
2023/07/19 11:33:29;;;;;;;;;;;;;;;23.46;28.23;97624.88;4951834;29;1572;-77
2023/07/19 11:35:54;;;;;;;;;;;;;;;23.54;27.81;97623.34;4948935;29;1631;-77
2023/07/19 11:38:20;;;;;;;;;;;;;;;23.87;27.50;97618.72;4940819;29;1252;-78
2023/07/19 11:40:46;;;;;;;;;;;;;;;23.75;27.67;97616.81;4940820;29;1551;-78
2023/07/19 11:43:11;;;;;;;;;;;;;;;23.53;27.85;97621.78;4957099;29;975;-78
2023/07/19 11:45:37;;;;;;;;;;;;;;;23.43;28.25;97620.16;4956580;29;1970;-77
2023/07/19 11:48:02;;;;;;;;;;;;;;;23.64;28.03;97616.47;4934209;29;1607;-78
2023/07/19 11:50:28;;;;;;;;;;;;;;;23.71;27.78;97616.16;4902909;29;1579;-77
2023/07/19 11:52:55;;;;;;;;;;;;;;;23.60;27.92;97610.91;4918123;29;1364;-78
2023/07/19 11:55:21;;;;;;;;;;;;;;;23.64;27.66;97605.91;4918732;29;1979;-77
2023/07/19 11:57:51;;;;;;;;;;;;;;;23.69;27.69;97601.66;4921599;29;1885;-77
2023/07/19 12:00:17;;;;;;;;;;;;;;;23.25;28.47;97600.97;4899696;29;1632;-77
2023/07/19 12:02:46;;;;;;;;;;;;;;;23.63;27.99;97603.53;4896892;29;1601;-77
2023/07/19 12:05:15;;;;;;;;;;;;;;;23.77;27.55;97608.59;4889390;29;1650;-77
2023/07/19 12:07:40;;;;;;;;;;;;;;;23.86;27.50;97600.13;4899259;29;1827;-78
2023/07/19 12:10:06;;;;;;;;;;;;;;;23.77;27.60;97608.59;4899504;29;1397;-77
2023/07/19 12:12:32;;;;;;;;;;;;;;;23.69;27.86;97601.66;4883893;29;1576;-77
2023/07/19 12:15:04;;;;;;;;;;;;;;;23.54;28.16;97600.63;4873137;29;1986;-77
2023/07/19 12:17:30;;;;;;;;;;;;;;;23.52;28.30;97586.09;4865748;29;1320;-77
2023/07/19 12:19:55;;;;;;;;;;;;;;;23.61;27.68;97589.75;4899415;29;1241;-77
2023/07/19 12:22:21;;;;;;;;;;;;;;;23.70;27.60;97593.94;4945275;29;1547;-77
2023/07/19 12:24:47;;;;;;;;;;;;;;;23.69;27.75;97590.28;4924744;29;1517;-77
2023/07/19 12:27:15;;;;;;;;;;;;;;;23.48;27.86;97591.94;4941233;29;1319;-77
2023/07/19 12:29:40;;;;;;;;;;;;;;;23.51;27.73;97595.88;4944513;29;1473;-77
2023/07/19 12:32:06;;;;;;;;;;;;;;;23.52;27.97;97586.09;4957817;29;1147;-77
2023/07/19 12:34:32;;;;;;;;;;;;;;;23.65;27.77;97583.97;4943762;29;2013;-77
2023/07/19 12:36:57;;;;;;;;;;;;;;;23.56;27.76;97581.84;4976812;28;974;-77
2023/07/19 12:39:24;;;;;;;;;;;;;;;23.70;27.50;97576.88;4944214;29;857;-77
2023/07/19 12:41:52;;;;;;;;;;;;;;;23.64;27.72;97588.88;4976146;28;913;-78
2023/07/19 12:44:24;;;;;;;;;;;;;;;23.60;27.43;97585.34;4975751;28;829;-78
2023/07/19 12:46:49;;;;;;;;;;;;;;;23.84;27.18;97574.22;4937910;29;1157;-78
2023/07/19 12:49:15;;;;;;;;;;;;;;;23.77;27.43;97577.34;4937404;29;879;-78
2023/07/19 12:51:42;;;;;;;;;;;;;;;23.67;27.57;97575.75;4937332;29;967;-77
2023/07/19 12:54:08;;;;;;;;;;;;;;;23.62;27.53;97590.53;4936953;29;1981;-78
2023/07/19 12:56:33;;;;;;;;;;;;;;;23.37;27.86;97575.34;4921743;29;894;-78